Terminal Aerodrome Forecast
Issued by NWS Cleveland, OH

Home | Current Version | Previous Version | Graphics & Text | Print | Product List | Glossary On
Versions: 1 2 3 4 5 6 7 8 9 10 11 12 13 14 15 16
000
FTUS41 KCLE 160521
TAFYNG
TAF
KYNG 160521Z 1606/1706 VRB03KT P6SM SCT100 OVC200
     FM161600 12005KT P6SM BKN050 OVC100
     FM170400 09005KT 4SM -RA BR SCT008 OVC012=

USA.gov is the U.S. government's official web portal to all federal, state and local government web resources and services.